Sveafjord — LCNI — position and weather

sailwx.info

Track history (hours):
 
Tides and Currents Weather Stations Pressure Air Temp Water Temp Dewpoint Dewpoint Depression Visibility Wind Speed Wind Dir Waves Ship Positions

Sveafjord

Last reported at 2018-Feb-21 15:00 UTC. Time now 2018-Feb-21 15:32 UTC.
Position N 64°33' E 010°37'.

Length 59 m; draft 3.8 m.

Type: Cargo ship. MMSI: 258340000.

Date/timePositionNaut miles runAvg speedWind from/ knotsBaromVisibWave heightAir tempDewpointWater temp
2018-Feb-21 15:00N 64°33' E 010°37'5 9.8
2018-Feb-21 14:30N 64°37' E 010°43'510.1
2018-Feb-21 14:00N 64°41' E 010°49'510.2
2018-Feb-21 13:30N 64°44' E 010°58'5 9.7
2018-Feb-21 13:00N 64°48' E 011°06'5 9.3
2018-Feb-21 12:30N 64°51' E 011°14'1 1.4
2018-Feb-21 12:00N 64°52' E 011°15'0 0.0
2018-Feb-21 11:30N 64°52' E 011°15'0 0.0
2018-Feb-21 10:59N 64°52' E 011°15'0 0.0
2018-Feb-21 10:30N 64°52' E 011°15'0 0.0
2018-Feb-21 10:00N 64°52' E 011°15'0 0.0
2018-Feb-21 09:30N 64°52' E 011°15'0 0.0
2018-Feb-21 09:00N 64°52' E 011°15'0 0.0
2018-Feb-21 08:30N 64°52' E 011°15'0 0.0
2018-Feb-21 08:00N 64°52' E 011°15'0 0.0
2018-Feb-21 07:30N 64°52' E 011°15'0 0.0
2018-Feb-21 07:00N 64°52' E 011°15'0 0.0
2018-Feb-21 06:30N 64°52' E 011°15'0 0.0
2018-Feb-21 06:00N 64°52' E 011°15'0 0.0
2018-Feb-21 05:30N 64°52' E 011°15'0 0.0
2018-Feb-21 05:00N 64°52' E 011°15'0 0.0
2018-Feb-21 04:30N 64°52' E 011°15'0 0.0
2018-Feb-21 04:00N 64°52' E 011°15'0 0.0
2018-Feb-21 03:30N 64°52' E 011°15'0 0.0
2018-Feb-21 03:00N 64°52' E 011°15'0 0.0
2018-Feb-21 02:29N 64°52' E 011°15'0 0.0
2018-Feb-21 02:00N 64°52' E 011°15'0 0.0
2018-Feb-21 01:30N 64°52' E 011°15'0 0.0
2018-Feb-21 01:00N 64°52' E 011°15'0 0.0
2018-Feb-21 00:30N 64°52' E 011°15'0 0.0
2018-Feb-21 00:00N 64°52' E 011°15'0 0.0
2018-Feb-20 23:30N 64°52' E 011°15'0 0.0
2018-Feb-20 23:00N 64°52' E 011°15'0 0.0
2018-Feb-20 22:30N 64°52' E 011°15'0 0.0
2018-Feb-20 22:00N 64°52' E 011°15'0 0.0
2018-Feb-20 21:30N 64°52' E 011°15'0 0.0
2018-Feb-20 21:00N 64°52' E 011°15'0 0.0
2018-Feb-20 20:30N 64°52' E 011°15'0 0.0
2018-Feb-20 20:00N 64°52' E 011°15'0 0.0
2018-Feb-20 19:30N 64°52' E 011°15'0 0.0
2018-Feb-20 19:00N 64°52' E 011°15'0 0.0
2018-Feb-20 18:29N 64°52' E 011°15'0 0.0
2018-Feb-20 18:00N 64°52' E 011°15'0 0.1
2018-Feb-20 17:30N 64°52' E 011°15'0 0.6
2018-Feb-20 17:00N 64°52' E 011°15'3 5.0
2018-Feb-20 16:30N 64°53' E 011°19'510.6
2018-Feb-20 16:00N 64°57' E 011°29'510.3
2018-Feb-20 15:29N 65°00' E 011°38'510.1
2018-Feb-20 15:00N 65°04' E 011°45'510.3
2018-Feb-20 14:30N 65°09' E 011°50'510.3
2018-Feb-20 14:00N 65°14' E 011°55'510.2
2018-Feb-20 13:30N 65°18' E 011°59'510.3
2018-Feb-20 13:00N 65°23' E 012°06'510.3
2018-Feb-20 12:30N 65°27' E 012°11'4 8.4
2018-Feb-20 12:00N 65°32' E 012°12'510.2
2018-Feb-20 11:30N 65°37' E 012°14'510.1
2018-Feb-20 10:59N 65°42' E 012°16'510.2
2018-Feb-20 10:28N 65°47' E 012°20'510.0
2018-Feb-20 10:00N 65°52' E 012°22'5 9.9
2018-Feb-20 09:30N 65°56' E 012°25'510.4
2018-Feb-20 09:00N 66°01' E 012°32'510.4
2018-Feb-20 08:29N 66°05' E 012°40'510.7
2018-Feb-20 08:00N 66°09' E 012°48'510.6
2018-Feb-20 07:30N 66°14' E 012°53'510.1
2018-Feb-20 07:00N 66°19' E 012°56'510.2
2018-Feb-20 06:30N 66°24' E 012°58'510.1
2018-Feb-20 06:00N 66°29' E 012°59'4 9.2
2018-Feb-20 05:30N 66°33' E 013°02'5 9.7
2018-Feb-20 05:00N 66°38' E 013°05'510.6
2018-Feb-20 04:30N 66°43' E 013°10'510.7
2018-Feb-20 04:00N 66°48' E 013°15'510.0
2018-Feb-20 03:30N 66°52' E 013°21'5 9.5
2018-Feb-20 03:00N 66°56' E 013°29'5 9.1
2018-Feb-20 02:30N 66°59' E 013°36'510.2
2018-Feb-20 02:00N 67°02' E 013°47'5 9.9
2018-Feb-20 01:30N 67°05' E 013°57'5 9.8
2018-Feb-20 01:00N 67°10' E 014°03'510.0
2018-Feb-20 00:30N 67°14' E 014°09'510.1
2018-Feb-20 00:00N 67°18' E 014°17'5 9.9
2018-Feb-19 23:30N 67°22' E 014°24'5 9.8
2018-Feb-19 23:00N 67°27' E 014°28'510.1
2018-Feb-19 22:30N 67°32' E 014°30'510.1
2018-Feb-19 22:00N 67°37' E 014°30'510.0
2018-Feb-19 21:30N 67°42' E 014°30'510.0
2018-Feb-19 21:00N 67°47' E 014°32'5 9.9
2018-Feb-19 20:30N 67°51' E 014°40'5 9.8
2018-Feb-19 20:00N 67°55' E 014°44'510.4
2018-Feb-19 19:30N 67°59' E 014°54'510.5
2018-Feb-19 19:00N 68°03' E 015°04'510.0
2018-Feb-19 18:30N 68°06' E 015°14'510.0
2018-Feb-19 17:59N 68°09' E 015°24'510.2
2018-Feb-19 17:30N 68°13' E 015°34'510.1
2018-Feb-19 16:59N 68°16' E 015°45'510.2
2018-Feb-19 16:30N 68°19' E 015°55'510.4
2018-Feb-19 16:00N 68°22' E 016°07'510.4
2018-Feb-19 15:29N 68°24' E 016°21'510.3
2018-Feb-19 15:00N 68°26' E 016°34'510.2
2018-Feb-19 14:30N 68°26' E 016°47'2 3.5
2018-Feb-19 13:58N 68°24' E 016°50'0 0.0
2018-Feb-19 13:28N 68°24' E 016°50'0 0.0
2018-Feb-19 12:58N 68°24' E 016°50'0 0.0
2018-Feb-19 12:28N 68°24' E 016°50'0 0.0
2018-Feb-19 11:59N 68°24' E 016°50'0 0.0
2018-Feb-19 11:28N 68°24' E 016°50'0 0.0
2018-Feb-19 10:58N 68°24' E 016°50'0 0.0
2018-Feb-19 10:30N 68°24' E 016°50'0 0.6
2018-Feb-19 10:00N 68°24' E 016°50'1 2.2
2018-Feb-19 09:30N 68°25' E 016°52'2 3.8
2018-Feb-19 09:00N 68°26' E 016°48'3 6.6
2018-Feb-19 08:30N 68°26' E 016°39'4 7.7
2018-Feb-19 08:00N 68°25' E 016°28'4 7.7
2018-Feb-19 07:30N 68°24' E 016°19'4 6.9
2018-Feb-19 07:00N 68°23' E 016°09'3 5.6
2018-Feb-19 06:30N 68°24' E 016°03'4 7.3
2018-Feb-19 06:00N 68°28' E 016°06'4 7.8
2018-Feb-19 05:30N 68°31' E 016°10'4 8.3
2018-Feb-19 05:00N 68°34' E 016°20'4 8.5
2018-Feb-19 04:30N 68°34' E 016°31'4 8.2
2018-Feb-19 04:00N 68°38' E 016°35'4 8.0
2018-Feb-19 03:29N 68°42' E 016°41'4 8.2
2018-Feb-19 03:00N 68°45' E 016°46'4 8.4
2018-Feb-19 02:30N 68°49' E 016°51'4 8.2
2018-Feb-19 02:00N 68°52' E 016°57'4 8.1
2018-Feb-19 01:30N 68°56' E 017°03'4 8.3
2018-Feb-19 01:00N 68°59' E 017°11'4 8.4
2018-Feb-19 00:30N 69°02' E 017°18'4 8.5
2018-Feb-19 00:00N 69°05' E 017°25'4 8.4
2018-Feb-18 23:30N 69°07' E 017°36'4 8.4
2018-Feb-18 23:00N 69°08' E 017°47'4 8.6
2018-Feb-18 22:30N 69°10' E 017°58'4 7.3
2018-Feb-18 21:59N 69°14' E 017°58'2 4.3
2018-Feb-18 21:30N 69°13' E 018°04'0 0.4
2018-Feb-18 21:00N 69°13' E 018°04'0 0.0
2018-Feb-18 20:30N 69°13' E 018°04'0 0.9
2018-Feb-18 20:00N 69°13' E 018°03'4 7.6
2018-Feb-18 19:30N 69°10' E 017°57'5 9.9
2018-Feb-18 19:00N 69°08' E 017°44'510.1
2018-Feb-18 18:30N 69°06' E 017°31'5 9.8
2018-Feb-18 18:00N 69°03' E 017°20'510.0
2018-Feb-18 17:30N 68°59' E 017°12'510.4
2018-Feb-18 17:00N 68°56' E 017°00'510.3
2018-Feb-18 16:30N 68°53' E 016°49'510.4
2018-Feb-18 16:00N 68°49' E 016°38'2 4.2
2018-Feb-18 15:30N 68°48' E 016°33'2 4.1
2018-Feb-18 15:00N 68°50' E 016°36'3 5.3
2018-Feb-18 14:30N 68°51' E 016°30'0 0.0
2018-Feb-18 14:00N 68°51' E 016°30'0 0.1
2018-Feb-18 13:30N 68°51' E 016°30'5 8.9
2018-Feb-18 12:59N 68°54' E 016°21'510.1
2018-Feb-18 12:30N 68°57' E 016°10'510.4
2018-Feb-18 11:59N 68°59' E 015°56'510.0
2018-Feb-18 11:30N 68°58' E 015°42'5 9.5
2018-Feb-18 10:59N 68°54' E 015°35'510.5
2018-Feb-18 10:30N 68°50' E 015°28'510.4
2018-Feb-18 10:00N 68°45' E 015°25'510.1
2018-Feb-18 09:30N 68°40' E 015°25'510.3
2018-Feb-18 09:00N 68°36' E 015°15'510.2
2018-Feb-18 08:30N 68°32' E 015°09'5 9.3
2018-Feb-18 08:00N 68°27' E 015°11'5 9.3
2018-Feb-18 07:30N 68°23' E 015°05'510.2
2018-Feb-18 07:00N 68°18' E 014°58'510.0
2018-Feb-18 06:30N 68°14' E 014°54'4 9.0
2018-Feb-18 06:00N 68°14' E 014°42'3 5.8
2018-Feb-18 05:29N 68°14' E 014°34'0 0.0
2018-Feb-18 05:00N 68°14' E 014°34'0 0.1
2018-Feb-18 04:30N 68°14' E 014°34'5 9.1
2018-Feb-18 03:59N 68°09' E 014°34'510.4
2018-Feb-18 03:30N 68°04' E 014°37'510.1
2018-Feb-18 03:00N 67°59' E 014°40'510.0
2018-Feb-18 02:30N 67°54' E 014°43'5 9.3
2018-Feb-18 01:59N 67°50' E 014°38'4 8.2
2018-Feb-18 01:29N 67°46' E 014°33'510.2
2018-Feb-18 01:00N 67°46' E 014°45'1 2.2
2018-Feb-18 00:29N 67°45' E 014°46'4 8.5
2018-Feb-18 00:00N 67°41' E 014°43'4 8.6
2018-Feb-17 23:30N 67°38' E 014°51'510.7
2018-Feb-17 23:00N 67°36' E 015°05'12 2.2
2018-Feb-17 17:35N 67°31' E 015°32'1 9.2
2018-Feb-17 17:29N 67°30' E 015°30'5 9.8
2018-Feb-17 16:56N 67°32' E 015°17'4 9.4
2018-Feb-17 16:30N 67°35' E 015°09'5 9.2
2018-Feb-17 15:59N 67°35' E 014°56'510.5
2018-Feb-17 15:30N 67°32' E 014°46'510.2
2018-Feb-17 15:00N 67°29' E 014°36'510.6
2018-Feb-17 14:30N 67°24' E 014°31'510.2
2018-Feb-17 14:00N 67°20' E 014°23'3 5.0
2018-Feb-17 13:30N 67°17' E 014°24'4 7.6
2018-Feb-17 13:00N 67°15' E 014°16'510.4
2018-Feb-17 12:30N 67°11' E 014°07'510.9
2018-Feb-17 12:00N 67°07' E 013°59'511.0
2018-Feb-17 11:30N 67°03' E 013°50'510.9
2018-Feb-17 11:00N 66°60' E 013°38'510.3
2018-Feb-17 10:30N 66°56' E 013°29'510.2
2018-Feb-17 09:58N 66°52' E 013°20'510.2
2018-Feb-17 09:30N 66°47' E 013°15'510.8
2018-Feb-17 09:00N 66°42' E 013°10'510.9
2018-Feb-17 08:30N 66°37' E 013°05'5 9.7
2018-Feb-17 08:00N 66°33' E 013°01'510.0
2018-Feb-17 07:30N 66°28' E 012°60'511.1
2018-Feb-17 07:00N 66°22' E 012°58'611.3
2018-Feb-17 06:30N 66°17' E 012°55'510.8
2018-Feb-17 06:00N 66°12' E 012°51'510.4
2018-Feb-17 05:30N 66°07' E 012°45'510.7
2018-Feb-17 05:00N 66°02' E 012°38'5 9.1
2018-Feb-17 04:30N 66°03' E 012°49'5 9.3
2018-Feb-17 04:00N 66°04' E 013°00'0 0.0
2018-Feb-17 03:30N 66°04' E 013°00'0 0.0
2018-Feb-17 03:00N 66°04' E 013°00'0 0.0
2018-Feb-17 02:29N 66°04' E 013°00'0 0.0
2018-Feb-17 02:00N 66°04' E 013°00'0 0.0
2018-Feb-17 01:30N 66°04' E 013°00'2 4.7
2018-Feb-17 01:00N 66°02' E 012°56'5 9.4
2018-Feb-17 00:30N 65°59' E 012°50'510.1
2018-Feb-17 00:00N 65°56' E 012°40'510.1
2018-Feb-16 23:30N 65°51' E 012°33'510.4
2018-Feb-16 23:00N 65°46' E 012°30'510.6
2018-Feb-16 22:30N 65°41' E 012°25'510.7
2018-Feb-16 22:00N 65°37' E 012°19'510.3
2018-Feb-16 21:29N 65°32' E 012°13'4 8.6
2018-Feb-16 21:00N 65°28' E 012°11'510.3
2018-Feb-16 20:30N 65°23' E 012°06'510.6
2018-Feb-16 20:00N 65°19' E 011°60'510.7
2018-Feb-16 19:30N 65°14' E 011°55'510.5
2018-Feb-16 19:00N 65°09' E 011°50'510.7
2018-Feb-16 18:30N 65°04' E 011°45'510.1
2018-Feb-16 18:00N 65°00' E 011°37'510.1
2018-Feb-16 17:30N 64°57' E 011°29'0 0.8
2018-Feb-16 17:00N 64°56' E 011°29'0 0.0
2018-Feb-16 16:30N 64°56' E 011°29'0 0.0
2018-Feb-16 16:00N 64°56' E 011°29'0 0.0
2018-Feb-16 15:30N 64°56' E 011°29'0 0.0
2018-Feb-16 15:00N 64°56' E 011°29'0 0.0
2018-Feb-16 14:30N 64°56' E 011°29'0 0.0
2018-Feb-16 14:00N 64°56' E 011°29'0 0.0
2018-Feb-16 13:30N 64°56' E 011°29'3 6.1
2018-Feb-16 13:00N 64°55' E 011°22'4 7.9
2018-Feb-16 12:30N 64°52' E 011°17'0 0.0
2018-Feb-16 12:00N 64°52' E 011°17'1 1.9
2018-Feb-16 11:30N 64°52' E 011°15'0 0.0
2018-Feb-16 11:00N 64°52' E 011°15'0 0.0
2018-Feb-16 10:30N 64°52' E 011°15'2 4.3
2018-Feb-16 10:00N 64°50' E 011°11'510.4
2018-Feb-16 09:30N 64°46' E 011°03'510.1
2018-Feb-16 09:00N 64°43' E 010°54'510.1
2018-Feb-16 08:30N 64°40' E 010°45'510.2
2018-Feb-16 08:00N 64°36' E 010°36'510.4
2018-Feb-16 07:30N 64°33' E 010°27'510.7
2018-Feb-16 07:00N 64°29' E 010°19'510.7
2018-Feb-16 06:30N 64°25' E 010°11'610.8
2018-Feb-16 06:00N 64°21' E 010°02'510.6
2018-Feb-16 05:30N 64°17' E 009°54'510.9
2018-Feb-16 05:00N 64°12' E 009°47'510.6
2018-Feb-16 04:30N 64°08' E 009°41'510.6
2018-Feb-16 04:00N 64°03' E 009°35'610.5
2018-Feb-16 03:28N 63°58' E 009°29'510.6
2018-Feb-16 03:00N 63°54' E 009°24'510.9
2018-Feb-16 02:30N 63°49' E 009°20'510.8
2018-Feb-16 02:00N 63°43' E 009°17'611.0
2018-Feb-16 01:30N 63°38' E 009°16'510.3
2018-Feb-16 01:00N 63°33' E 009°16'510.3
2018-Feb-16 00:29N 63°30' E 009°05'510.4
2018-Feb-16 00:00N 63°28' E 008°55'510.4
2018-Feb-15 23:29N 63°26' E 008°44'510.4
2018-Feb-15 23:00N 63°24' E 008°34'510.2
2018-Feb-15 22:30N 63°22' E 008°24'611.2
2018-Feb-15 22:00N 63°18' E 008°14'611.1
2018-Feb-15 21:30N 63°15' E 008°04'611.1
2018-Feb-15 21:00N 63°12' E 007°53'5 9.6
2018-Feb-15 20:30N 63°08' E 007°48'1 2.6
2018-Feb-15 20:00N 63°07' E 007°46'1 2.8
2018-Feb-15 19:31N 63°08' E 007°48'510.2
2018-Feb-15 19:00N 63°07' E 007°36'510.6
2018-Feb-15 18:30N 63°05' E 007°26'510.2
2018-Feb-15 18:00N 63°03' E 007°16'5 9.9
2018-Feb-15 17:30N 63°01' E 007°06'5 9.6
2018-Feb-15 17:00N 62°59' E 006°56'510.0
2018-Feb-15 16:29N 62°56' E 006°48'510.6
2018-Feb-15 16:00N 62°51' E 006°41'510.6
2018-Feb-15 15:30N 62°47' E 006°35'510.3
2018-Feb-15 15:00N 62°43' E 006°29'510.3
2018-Feb-15 14:30N 62°38' E 006°23'5 9.6
2018-Feb-15 14:00N 62°35' E 006°15'5 9.6
2018-Feb-15 13:30N 62°31' E 006°09'5 9.2
2018-Feb-15 13:00N 62°28' E 006°03'5 9.9
2018-Feb-15 12:29N 62°25' E 005°53'5 9.8
2018-Feb-15 12:00N 62°22' E 005°47'4 8.2
2018-Feb-15 11:30N 62°19' E 005°40'5 9.5
2018-Feb-15 10:59N 62°16' E 005°31'4 9.0
2018-Feb-15 10:30N 62°12' E 005°28'1 2.9
2018-Feb-15 10:00N 62°12' E 005°25'0 0.0
2018-Feb-15 09:30N 62°12' E 005°25'0 0.0
2018-Feb-15 09:00N 62°12' E 005°25'0 0.0
2018-Feb-15 08:30N 62°12' E 005°25'0 0.0
2018-Feb-15 08:00N 62°12' E 005°25'0 0.0
2018-Feb-15 07:30N 62°12' E 005°25'0 0.0
2018-Feb-15 07:00N 62°12' E 005°25'0 0.0
2018-Feb-15 06:27N 62°12' E 005°25'0 0.0
2018-Feb-15 06:00N 62°12' E 005°25'0 0.0
2018-Feb-15 05:30N 62°12' E 005°25'0 0.0
2018-Feb-15 05:00N 62°12' E 005°25'0 0.0
2018-Feb-15 04:30N 62°12' E 005°25'0 0.0
2018-Feb-15 04:00N 62°12' E 005°25'0 0.0
2018-Feb-15 03:30N 62°12' E 005°25'0 0.0
2018-Feb-15 03:00N 62°12' E 005°25'0 0.0
2018-Feb-15 02:30N 62°12' E 005°25'0 0.0
2018-Feb-15 02:00N 62°12' E 005°25'0 0.0
2018-Feb-15 01:30N 62°12' E 005°25'0 0.0
2018-Feb-15 01:00N 62°12' E 005°25'0 0.0
2018-Feb-15 00:30N 62°12' E 005°25'0 0.0
2018-Feb-15 00:00N 62°12' E 005°25'0 0.0
2018-Feb-14 23:30N 62°12' E 005°25'0 0.0
2018-Feb-14 23:00N 62°12' E 005°25'0 0.0
2018-Feb-14 22:30N 62°12' E 005°25'0 0.0
2018-Feb-14 22:00N 62°12' E 005°25'0 0.0
2018-Feb-14 21:30N 62°12' E 005°25'0 0.0
2018-Feb-14 21:00N 62°12' E 005°25'0 0.0
2018-Feb-14 20:30N 62°12' E 005°25'0 0.0
2018-Feb-14 20:00N 62°12' E 005°25'0 0.0
2018-Feb-14 19:30N 62°12' E 005°25'0 0.0
2018-Feb-14 19:00N 62°12' E 005°25'0 0.0
2018-Feb-14 18:30N 62°12' E 005°25'0 0.0
2018-Feb-14 18:00N 62°12' E 005°25'0 0.0
2018-Feb-14 17:30N 62°12' E 005°25'0 0.0
2018-Feb-14 17:00N 62°12' E 005°25'0 0.0
2018-Feb-14 16:30N 62°12' E 005°25'0 0.0
2018-Feb-14 16:00N 62°12' E 005°25'0 0.0
2018-Feb-14 15:30N 62°12' E 005°25'0 0.0
2018-Feb-14 14:59N 62°12' E 005°25'0 0.0
2018-Feb-14 14:30N 62°12' E 005°25'4 7.6
2018-Feb-14 13:59N 62°11' E 005°34'510.1
2018-Feb-14 13:30N 62°12' E 005°44'4 8.3
2018-Feb-14 13:00N 62°15' E 005°51'3 5.0
2018-Feb-14 12:29N 62°17' E 005°52'0 0.3
2018-Feb-14 12:00N 62°17' E 005°52'3 6.0
2018-Feb-14 11:30N 62°14' E 005°51'5 9.7
2018-Feb-14 11:00N 62°11' E 005°42'5 9.1
2018-Feb-14 10:29N 62°12' E 005°32'4 8.8
2018-Feb-14 10:00N 62°11' E 005°23'5 9.3
2018-Feb-14 09:29N 62°13' E 005°14'5 9.1
2018-Feb-14 09:00N 62°12' E 005°05'5 9.8
2018-Feb-14 08:29N 62°07' E 005°05'510.0
2018-Feb-14 08:00N 62°02' E 005°09'510.1
2018-Feb-14 07:30N 61°57' E 005°09'4 7.2
2018-Feb-14 06:59N 61°54' E 005°12'510.2
2018-Feb-14 06:30N 61°55' E 005°22'510.2
2018-Feb-14 06:00N 61°55' E 005°33'510.7
2018-Feb-14 05:30N 61°53' E 005°44'5 9.1
2018-Feb-14 05:00N 61°52' E 005°53'510.1
2018-Feb-14 04:30N 61°50' E 006°04'5 9.5
2018-Feb-14 04:00N 61°47' E 006°11'0 0.9
2018-Feb-14 03:30N 61°47' E 006°12'0 0.0
2018-Feb-14 03:00N 61°47' E 006°12'0 0.0
2018-Feb-14 02:30N 61°47' E 006°12'0 0.0
2018-Feb-14 02:00N 61°47' E 006°12'0 0.0
2018-Feb-14 01:29N 61°47' E 006°12'1 2.4
2018-Feb-14 01:00N 61°47' E 006°09'5 9.5
2018-Feb-14 00:30N 61°51' E 006°03'5 9.1
2018-Feb-14 00:00N 61°52' E 005°53'4 8.4
2018-Feb-13 23:30N 61°53' E 005°44'5 8.9
2018-Feb-13 22:59N 61°55' E 005°35'4 9.1
2018-Feb-13 22:30N 61°55' E 005°26'5 9.8
2018-Feb-13 21:59N 61°54' E 005°16'2 4.1
2018-Feb-13 21:30N 61°52' E 005°14'3 6.7
2018-Feb-13 21:00N 61°49' E 005°11'510.2
2018-Feb-13 20:30N 61°46' E 005°02'5 9.7
2018-Feb-13 20:00N 61°42' E 004°58'510.2
2018-Feb-13 19:29N 61°36' E 004°58'5 9.6
2018-Feb-13 18:59N 61°32' E 005°00'510.7
2018-Feb-13 18:30N 61°27' E 004°58'510.5
2018-Feb-13 18:00N 61°22' E 005°02'4 8.1
2018-Feb-13 17:30N 61°18' E 004°59'4 8.3
2018-Feb-13 17:00N 61°14' E 004°56'510.3
2018-Feb-13 16:30N 61°09' E 005°01'510.2
2018-Feb-13 16:00N 61°04' E 004°59'510.6
2018-Feb-13 15:29N 61°01' E 004°50'510.0
2018-Feb-13 14:59N 60°56' E 004°46'510.6
2018-Feb-13 14:30N 60°51' E 004°46'5 9.9
2018-Feb-13 14:00N 60°46' E 004°47'510.7
2018-Feb-13 13:30N 60°41' E 004°52'510.8
2018-Feb-13 13:00N 60°37' E 004°56'4 7.4
2018-Feb-13 12:30N 60°33' E 004°59'0 0.0
2018-Feb-13 12:00N 60°33' E 004°59'4 8.5
2018-Feb-13 11:30N 60°31' E 005°07'510.2
2018-Feb-13 11:00N 60°28' E 005°15'510.3
2018-Feb-13 10:30N 60°23' E 005°18'1 1.1
2018-Feb-13 10:00N 60°23' E 005°19'0 0.0
2018-Feb-13 09:30N 60°23' E 005°19'0 0.0
2018-Feb-13 09:00N 60°23' E 005°19'0 0.0
2018-Feb-13 08:30N 60°23' E 005°19'1 1.9
2018-Feb-13 08:00N 60°24' E 005°18'2 4.9
2018-Feb-13 07:30N 60°24' E 005°13'5 9.2
2018-Feb-13 07:00N 60°19' E 005°12'510.5
2018-Feb-13 06:30N 60°14' E 005°10'510.8
2018-Feb-13 06:00N 60°09' E 005°16'510.3
2018-Feb-13 05:30N 60°05' E 005°19'510.5
2018-Feb-13 04:59N 59°59' E 005°21'510.6
2018-Feb-13 04:30N 59°56' E 005°29'510.5
2018-Feb-13 04:00N 59°51' E 005°33'510.3
2018-Feb-13 03:30N 59°46' E 005°32'511.2
2018-Feb-13 03:00N 59°42' E 005°25'510.7
2018-Feb-13 02:30N 59°37' E 005°18'510.6
2018-Feb-13 02:00N 59°33' E 005°14'510.1
2018-Feb-13 01:30N 59°28' E 005°13'510.1
2018-Feb-13 01:00N 59°23' E 005°18'510.4
2018-Feb-13 00:30N 59°18' E 005°20'4 8.0
2018-Feb-12 23:59N 59°15' E 005°25'5 9.8
2018-Feb-12 23:30N 59°11' E 005°32'510.1
2018-Feb-12 22:59N 59°09' E 005°41'510.3
2018-Feb-12 22:30N 59°07' E 005°50'4 7.7
2018-Feb-12 22:00N 59°07' E 005°58'1 2.6
2018-Feb-12 21:29N 59°07' E 006°00'0 0.0
2018-Feb-12 21:00N 59°07' E 006°00'0 0.0
2018-Feb-12 20:24N 59°07' E 006°00'0 0.0
2018-Feb-12 19:59N 59°07' E 006°00'0 0.0
2018-Feb-12 19:30N 59°07' E 006°00'0 0.0
2018-Feb-12 19:00N 59°07' E 006°00'0 0.0
2018-Feb-12 18:27N 59°07' E 006°00'0 0.0
2018-Feb-12 18:00N 59°07' E 006°00'0 0.0
2018-Feb-12 17:30N 59°07' E 006°00'0 0.0
2018-Feb-12 16:59N 59°07' E 006°00'0 0.0
2018-Feb-12 16:30N 59°07' E 006°00'0 0.0
2018-Feb-12 16:00N 59°07' E 006°00'0 0.0
2018-Feb-12 15:29N 59°07' E 006°00'0 0.0
2018-Feb-12 15:00N 59°07' E 006°00'0 0.0
2018-Feb-12 14:29N 59°07' E 006°00'0 0.0
2018-Feb-12 14:00N 59°07' E 006°00'0 0.0
2018-Feb-12 13:30N 59°07' E 006°00'0 0.0
2018-Feb-12 12:59N 59°07' E 005°60'0 0.0
2018-Feb-12 12:29N 59°07' E 006°00'0 0.0
2018-Feb-12 11:59N 59°07' E 006°00'0 0.0
2018-Feb-12 11:29N 59°07' E 006°00'0 0.0
2018-Feb-12 11:00N 59°07' E 006°00'0 0.0
2018-Feb-12 10:29N 59°07' E 006°00'0 0.0
2018-Feb-12 09:57N 59°07' E 006°00'0 0.0
2018-Feb-12 09:29N 59°07' E 006°00'0 0.0
2018-Feb-12 09:00N 59°07' E 006°00'3 6.7
2018-Feb-12 08:30N 59°06' E 005°54'3 6.2
2018-Feb-12 08:00N 59°09' E 005°51'0 0.0
2018-Feb-12 07:30N 59°09' E 005°51'3 5.9
2018-Feb-12 07:00N 59°06' E 005°52'5 9.9
2018-Feb-12 06:30N 59°02' E 005°46'510.4
2018-Feb-12 06:00N 59°02' E 005°36'5 9.2
2018-Feb-12 05:30N 58°58' E 005°33'510.5
2018-Feb-12 05:00N 58°53' E 005°32'5 9.9
2018-Feb-12 04:30N 58°48' E 005°28'4 9.1
2018-Feb-12 04:00N 58°44' E 005°27'510.0
2018-Feb-12 03:30N 58°39' E 005°31'5 9.7
2018-Feb-12 03:00N 58°35' E 005°36'5 9.9
2018-Feb-12 02:30N 58°31' E 005°41'5 9.8
2018-Feb-12 01:59N 58°27' E 005°47'5 9.5
2018-Feb-12 01:30N 58°24' E 005°54'3 6.4
2018-Feb-12 01:00N 58°26' E 005°59'1 2.3
2018-Feb-12 00:30N 58°27' E 005°60'0 0.0
2018-Feb-12 00:00N 58°27' E 005°60'0 0.0
2018-Feb-11 23:31N 58°27' E 005°60'2 4.8
2018-Feb-11 23:00N 58°25' E 005°60'4 7.6
2018-Feb-11 22:30N 58°25' E 005°52'510.2
2018-Feb-11 22:00N 58°29' E 005°46'2 3.3
2018-Feb-11 21:30N 58°30' E 005°47'0 0.0
2018-Feb-11 20:56N 58°30' E 005°47'0 0.0
2018-Feb-11 20:30N 58°30' E 005°47'0 0.0
2018-Feb-11 20:00N 58°30' E 005°47'1 2.8
2018-Feb-11 19:30N 58°31' E 005°45'4 8.6
2018-Feb-11 19:00N 58°33' E 005°38'5 9.7
2018-Feb-11 18:30N 58°37' E 005°33'4 8.8
2018-Feb-11 18:00N 58°41' E 005°29'4 8.4
2018-Feb-11 17:30N 58°45' E 005°26'4 8.7
2018-Feb-11 17:00N 58°49' E 005°28'510.0
2018-Feb-11 16:30N 58°54' E 005°32'5 9.9
2018-Feb-11 16:00N 58°58' E 005°33'4 8.3
2018-Feb-11 15:30N 59°02' E 005°36'5 9.8
2018-Feb-11 15:00N 59°02' E 005°46'  
Track history (hours):
 
Tides and Currents Weather Stations Pressure Air Temp Water Temp Dewpoint Dewpoint Depression Visibility Wind Speed Wind Dir Waves Ship Positions

Sveafjord

Last reported at 2018-Feb-21 15:00 UTC. Time now 2018-Feb-21 15:32 UTC.
Position N 64°33' E 010°37'.

Length 59 m; draft 3.8 m.

Type: Cargo ship. MMSI: 258340000.

Date/timePositionNaut miles runAvg speedWind from/ knotsBaromVisibWave heightAir tempDewpointWater temp
2018-Feb-21 15:00N 64°33' E 010°37'5 9.8
2018-Feb-21 14:30N 64°37' E 010°43'510.1
2018-Feb-21 14:00N 64°41' E 010°49'510.2
2018-Feb-21 13:30N 64°44' E 010°58'5 9.7
2018-Feb-21 13:00N 64°48' E 011°06'5 9.3
2018-Feb-21 12:30N 64°51' E 011°14'1 1.4
2018-Feb-21 12:00N 64°52' E 011°15'0 0.0
2018-Feb-21 11:30N 64°52' E 011°15'0 0.0
2018-Feb-21 10:59N 64°52' E 011°15'0 0.0
2018-Feb-21 10:30N 64°52' E 011°15'0 0.0
2018-Feb-21 10:00N 64°52' E 011°15'0 0.0
2018-Feb-21 09:30N 64°52' E 011°15'0 0.0
2018-Feb-21 09:00N 64°52' E 011°15'0 0.0
2018-Feb-21 08:30N 64°52' E 011°15'0 0.0
2018-Feb-21 08:00N 64°52' E 011°15'0 0.0
2018-Feb-21 07:30N 64°52' E 011°15'0 0.0
2018-Feb-21 07:00N 64°52' E 011°15'0 0.0
2018-Feb-21 06:30N 64°52' E 011°15'0 0.0
2018-Feb-21 06:00N 64°52' E 011°15'0 0.0
2018-Feb-21 05:30N 64°52' E 011°15'0 0.0
2018-Feb-21 05:00N 64°52' E 011°15'0 0.0
2018-Feb-21 04:30N 64°52' E 011°15'0 0.0
2018-Feb-21 04:00N 64°52' E 011°15'0 0.0
2018-Feb-21 03:30N 64°52' E 011°15'0 0.0
2018-Feb-21 03:00N 64°52' E 011°15'0 0.0
2018-Feb-21 02:29N 64°52' E 011°15'0 0.0
2018-Feb-21 02:00N 64°52' E 011°15'0 0.0
2018-Feb-21 01:30N 64°52' E 011°15'0 0.0
2018-Feb-21 01:00N 64°52' E 011°15'0 0.0
2018-Feb-21 00:30N 64°52' E 011°15'0 0.0
2018-Feb-21 00:00N 64°52' E 011°15'0 0.0
2018-Feb-20 23:30N 64°52' E 011°15'0 0.0
2018-Feb-20 23:00N 64°52' E 011°15'0 0.0
2018-Feb-20 22:30N 64°52' E 011°15'0 0.0
2018-Feb-20 22:00N 64°52' E 011°15'0 0.0
2018-Feb-20 21:30N 64°52' E 011°15'0 0.0
2018-Feb-20 21:00N 64°52' E 011°15'0 0.0
2018-Feb-20 20:30N 64°52' E 011°15'0 0.0
2018-Feb-20 20:00N 64°52' E 011°15'0 0.0
2018-Feb-20 19:30N 64°52' E 011°15'0 0.0
2018-Feb-20 19:00N 64°52' E 011°15'0 0.0
2018-Feb-20 18:29N 64°52' E 011°15'0 0.0
2018-Feb-20 18:00N 64°52' E 011°15'0 0.1
2018-Feb-20 17:30N 64°52' E 011°15'0 0.6
2018-Feb-20 17:00N 64°52' E 011°15'3 5.0
2018-Feb-20 16:30N 64°53' E 011°19'510.6
2018-Feb-20 16:00N 64°57' E 011°29'510.3
2018-Feb-20 15:29N 65°00' E 011°38'510.1
2018-Feb-20 15:00N 65°04' E 011°45'510.3
2018-Feb-20 14:30N 65°09' E 011°50'510.3
2018-Feb-20 14:00N 65°14' E 011°55'510.2
2018-Feb-20 13:30N 65°18' E 011°59'510.3
2018-Feb-20 13:00N 65°23' E 012°06'510.3
2018-Feb-20 12:30N 65°27' E 012°11'4 8.4
2018-Feb-20 12:00N 65°32' E 012°12'510.2
2018-Feb-20 11:30N 65°37' E 012°14'510.1
2018-Feb-20 10:59N 65°42' E 012°16'510.2
2018-Feb-20 10:28N 65°47' E 012°20'510.0
2018-Feb-20 10:00N 65°52' E 012°22'5 9.9
2018-Feb-20 09:30N 65°56' E 012°25'510.4
2018-Feb-20 09:00N 66°01' E 012°32'510.4
2018-Feb-20 08:29N 66°05' E 012°40'510.7
2018-Feb-20 08:00N 66°09' E 012°48'510.6
2018-Feb-20 07:30N 66°14' E 012°53'510.1
2018-Feb-20 07:00N 66°19' E 012°56'510.2
2018-Feb-20 06:30N 66°24' E 012°58'510.1
2018-Feb-20 06:00N 66°29' E 012°59'4 9.2
2018-Feb-20 05:30N 66°33' E 013°02'5 9.7
2018-Feb-20 05:00N 66°38' E 013°05'510.6
2018-Feb-20 04:30N 66°43' E 013°10'510.7
2018-Feb-20 04:00N 66°48' E 013°15'510.0
2018-Feb-20 03:30N 66°52' E 013°21'5 9.5
2018-Feb-20 03:00N 66°56' E 013°29'5 9.1
2018-Feb-20 02:30N 66°59' E 013°36'510.2
2018-Feb-20 02:00N 67°02' E 013°47'5 9.9
2018-Feb-20 01:30N 67°05' E 013°57'5 9.8
2018-Feb-20 01:00N 67°10' E 014°03'510.0
2018-Feb-20 00:30N 67°14' E 014°09'510.1
2018-Feb-20 00:00N 67°18' E 014°17'5 9.9
2018-Feb-19 23:30N 67°22' E 014°24'5 9.8
2018-Feb-19 23:00N 67°27' E 014°28'510.1
2018-Feb-19 22:30N 67°32' E 014°30'510.1
2018-Feb-19 22:00N 67°37' E 014°30'510.0
2018-Feb-19 21:30N 67°42' E 014°30'510.0
2018-Feb-19 21:00N 67°47' E 014°32'5 9.9
2018-Feb-19 20:30N 67°51' E 014°40'5 9.8
2018-Feb-19 20:00N 67°55' E 014°44'510.4
2018-Feb-19 19:30N 67°59' E 014°54'510.5
2018-Feb-19 19:00N 68°03' E 015°04'510.0
2018-Feb-19 18:30N 68°06' E 015°14'510.0
2018-Feb-19 17:59N 68°09' E 015°24'510.2
2018-Feb-19 17:30N 68°13' E 015°34'510.1
2018-Feb-19 16:59N 68°16' E 015°45'510.2
2018-Feb-19 16:30N 68°19' E 015°55'510.4
2018-Feb-19 16:00N 68°22' E 016°07'510.4
2018-Feb-19 15:29N 68°24' E 016°21'510.3
2018-Feb-19 15:00N 68°26' E 016°34'510.2
2018-Feb-19 14:30N 68°26' E 016°47'2 3.5
2018-Feb-19 13:58N 68°24' E 016°50'0 0.0
2018-Feb-19 13:28N 68°24' E 016°50'0 0.0
2018-Feb-19 12:58N 68°24' E 016°50'0 0.0
2018-Feb-19 12:28N 68°24' E 016°50'0 0.0
2018-Feb-19 11:59N 68°24' E 016°50'0 0.0
2018-Feb-19 11:28N 68°24' E 016°50'0 0.0
2018-Feb-19 10:58N 68°24' E 016°50'0 0.0
2018-Feb-19 10:30N 68°24' E 016°50'0 0.6
2018-Feb-19 10:00N 68°24' E 016°50'1 2.2
2018-Feb-19 09:30N 68°25' E 016°52'2 3.8
2018-Feb-19 09:00N 68°26' E 016°48'3 6.6
2018-Feb-19 08:30N 68°26' E 016°39'4 7.7
2018-Feb-19 08:00N 68°25' E 016°28'4 7.7
2018-Feb-19 07:30N 68°24' E 016°19'4 6.9
2018-Feb-19 07:00N 68°23' E 016°09'3 5.6
2018-Feb-19 06:30N 68°24' E 016°03'4 7.3
2018-Feb-19 06:00N 68°28' E 016°06'4 7.8
2018-Feb-19 05:30N 68°31' E 016°10'4 8.3
2018-Feb-19 05:00N 68°34' E 016°20'4 8.5
2018-Feb-19 04:30N 68°34' E 016°31'4 8.2
2018-Feb-19 04:00N 68°38' E 016°35'4 8.0
2018-Feb-19 03:29N 68°42' E 016°41'4 8.2
2018-Feb-19 03:00N 68°45' E 016°46'4 8.4
2018-Feb-19 02:30N 68°49' E 016°51'4 8.2
2018-Feb-19 02:00N 68°52' E 016°57'4 8.1
2018-Feb-19 01:30N 68°56' E 017°03'4 8.3
2018-Feb-19 01:00N 68°59' E 017°11'4 8.4
2018-Feb-19 00:30N 69°02' E 017°18'4 8.5
2018-Feb-19 00:00N 69°05' E 017°25'4 8.4
2018-Feb-18 23:30N 69°07' E 017°36'4 8.4
2018-Feb-18 23:00N 69°08' E 017°47'4 8.6
2018-Feb-18 22:30N 69°10' E 017°58'4 7.3
2018-Feb-18 21:59N 69°14' E 017°58'2 4.3
2018-Feb-18 21:30N 69°13' E 018°04'0 0.4
2018-Feb-18 21:00N 69°13' E 018°04'0 0.0
2018-Feb-18 20:30N 69°13' E 018°04'0 0.9
2018-Feb-18 20:00N 69°13' E 018°03'4 7.6
2018-Feb-18 19:30N 69°10' E 017°57'5 9.9
2018-Feb-18 19:00N 69°08' E 017°44'510.1
2018-Feb-18 18:30N 69°06' E 017°31'5 9.8
2018-Feb-18 18:00N 69°03' E 017°20'510.0
2018-Feb-18 17:30N 68°59' E 017°12'510.4
2018-Feb-18 17:00N 68°56' E 017°00'510.3
2018-Feb-18 16:30N 68°53' E 016°49'510.4
2018-Feb-18 16:00N 68°49' E 016°38'2 4.2
2018-Feb-18 15:30N 68°48' E 016°33'2 4.1
2018-Feb-18 15:00N 68°50' E 016°36'3 5.3
2018-Feb-18 14:30N 68°51' E 016°30'0 0.0
2018-Feb-18 14:00N 68°51' E 016°30'0 0.1
2018-Feb-18 13:30N 68°51' E 016°30'5 8.9
2018-Feb-18 12:59N 68°54' E 016°21'510.1
2018-Feb-18 12:30N 68°57' E 016°10'510.4
2018-Feb-18 11:59N 68°59' E 015°56'510.0
2018-Feb-18 11:30N 68°58' E 015°42'5 9.5
2018-Feb-18 10:59N 68°54' E 015°35'510.5
2018-Feb-18 10:30N 68°50' E 015°28'510.4
2018-Feb-18 10:00N 68°45' E 015°25'510.1
2018-Feb-18 09:30N 68°40' E 015°25'510.3
2018-Feb-18 09:00N 68°36' E 015°15'510.2
2018-Feb-18 08:30N 68°32' E 015°09'5 9.3
2018-Feb-18 08:00N 68°27' E 015°11'5 9.3
2018-Feb-18 07:30N 68°23' E 015°05'510.2
2018-Feb-18 07:00N 68°18' E 014°58'510.0
2018-Feb-18 06:30N 68°14' E 014°54'4 9.0
2018-Feb-18 06:00N 68°14' E 014°42'3 5.8
2018-Feb-18 05:29N 68°14' E 014°34'0 0.0
2018-Feb-18 05:00N 68°14' E 014°34'0 0.1
2018-Feb-18 04:30N 68°14' E 014°34'5 9.1
2018-Feb-18 03:59N 68°09' E 014°34'510.4
2018-Feb-18 03:30N 68°04' E 014°37'510.1
2018-Feb-18 03:00N 67°59' E 014°40'510.0
2018-Feb-18 02:30N 67°54' E 014°43'5 9.3
2018-Feb-18 01:59N 67°50' E 014°38'4 8.2
2018-Feb-18 01:29N 67°46' E 014°33'510.2
2018-Feb-18 01:00N 67°46' E 014°45'1 2.2
2018-Feb-18 00:29N 67°45' E 014°46'4 8.5
2018-Feb-18 00:00N 67°41' E 014°43'4 8.6
2018-Feb-17 23:30N 67°38' E 014°51'510.7
2018-Feb-17 23:00N 67°36' E 015°05'12 2.2
2018-Feb-17 17:35N 67°31' E 015°32'1 9.2
2018-Feb-17 17:29N 67°30' E 015°30'5 9.8
2018-Feb-17 16:56N 67°32' E 015°17'4 9.4
2018-Feb-17 16:30N 67°35' E 015°09'5 9.2
2018-Feb-17 15:59N 67°35' E 014°56'510.5
2018-Feb-17 15:30N 67°32' E 014°46'510.2
2018-Feb-17 15:00N 67°29' E 014°36'510.6
2018-Feb-17 14:30N 67°24' E 014°31'510.2
2018-Feb-17 14:00N 67°20' E 014°23'3 5.0
2018-Feb-17 13:30N 67°17' E 014°24'4 7.6
2018-Feb-17 13:00N 67°15' E 014°16'510.4
2018-Feb-17 12:30N 67°11' E 014°07'510.9
2018-Feb-17 12:00N 67°07' E 013°59'511.0
2018-Feb-17 11:30N 67°03' E 013°50'510.9
2018-Feb-17 11:00N 66°60' E 013°38'510.3
2018-Feb-17 10:30N 66°56' E 013°29'510.2
2018-Feb-17 09:58N 66°52' E 013°20'510.2
2018-Feb-17 09:30N 66°47' E 013°15'510.8
2018-Feb-17 09:00N 66°42' E 013°10'510.9
2018-Feb-17 08:30N 66°37' E 013°05'5 9.7
2018-Feb-17 08:00N 66°33' E 013°01'510.0
2018-Feb-17 07:30N 66°28' E 012°60'511.1
2018-Feb-17 07:00N 66°22' E 012°58'611.3
2018-Feb-17 06:30N 66°17' E 012°55'510.8
2018-Feb-17 06:00N 66°12' E 012°51'510.4
2018-Feb-17 05:30N 66°07' E 012°45'510.7
2018-Feb-17 05:00N 66°02' E 012°38'5 9.1
2018-Feb-17 04:30N 66°03' E 012°49'5 9.3
2018-Feb-17 04:00N 66°04' E 013°00'0 0.0
2018-Feb-17 03:30N 66°04' E 013°00'0 0.0
2018-Feb-17 03:00N 66°04' E 013°00'0 0.0
2018-Feb-17 02:29N 66°04' E 013°00'0 0.0
2018-Feb-17 02:00N 66°04' E 013°00'0 0.0
2018-Feb-17 01:30N 66°04' E 013°00'2 4.7
2018-Feb-17 01:00N 66°02' E 012°56'5 9.4
2018-Feb-17 00:30N 65°59' E 012°50'510.1
2018-Feb-17 00:00N 65°56' E 012°40'510.1
2018-Feb-16 23:30N 65°51' E 012°33'510.4
2018-Feb-16 23:00N 65°46' E 012°30'510.6
2018-Feb-16 22:30N 65°41' E 012°25'510.7
2018-Feb-16 22:00N 65°37' E 012°19'510.3
2018-Feb-16 21:29N 65°32' E 012°13'4 8.6
2018-Feb-16 21:00N 65°28' E 012°11'510.3
2018-Feb-16 20:30N 65°23' E 012°06'510.6
2018-Feb-16 20:00N 65°19' E 011°60'510.7
2018-Feb-16 19:30N 65°14' E 011°55'510.5
2018-Feb-16 19:00N 65°09' E 011°50'510.7
2018-Feb-16 18:30N 65°04' E 011°45'510.1
2018-Feb-16 18:00N 65°00' E 011°37'510.1
2018-Feb-16 17:30N 64°57' E 011°29'0 0.8
2018-Feb-16 17:00N 64°56' E 011°29'0 0.0
2018-Feb-16 16:30N 64°56' E 011°29'0 0.0
2018-Feb-16 16:00N 64°56' E 011°29'0 0.0
2018-Feb-16 15:30N 64°56' E 011°29'0 0.0
2018-Feb-16 15:00N 64°56' E 011°29'0 0.0
2018-Feb-16 14:30N 64°56' E 011°29'0 0.0
2018-Feb-16 14:00N 64°56' E 011°29'0 0.0
2018-Feb-16 13:30N 64°56' E 011°29'3 6.1
2018-Feb-16 13:00N 64°55' E 011°22'4 7.9
2018-Feb-16 12:30N 64°52' E 011°17'0 0.0
2018-Feb-16 12:00N 64°52' E 011°17'1 1.9
2018-Feb-16 11:30N 64°52' E 011°15'0 0.0
2018-Feb-16 11:00N 64°52' E 011°15'0 0.0
2018-Feb-16 10:30N 64°52' E 011°15'2 4.3
2018-Feb-16 10:00N 64°50' E 011°11'510.4
2018-Feb-16 09:30N 64°46' E 011°03'510.1
2018-Feb-16 09:00N 64°43' E 010°54'510.1
2018-Feb-16 08:30N 64°40' E 010°45'510.2
2018-Feb-16 08:00N 64°36' E 010°36'510.4
2018-Feb-16 07:30N 64°33' E 010°27'510.7
2018-Feb-16 07:00N 64°29' E 010°19'510.7
2018-Feb-16 06:30N 64°25' E 010°11'610.8
2018-Feb-16 06:00N 64°21' E 010°02'510.6
2018-Feb-16 05:30N 64°17' E 009°54'510.9
2018-Feb-16 05:00N 64°12' E 009°47'510.6
2018-Feb-16 04:30N 64°08' E 009°41'510.6
2018-Feb-16 04:00N 64°03' E 009°35'610.5
2018-Feb-16 03:28N 63°58' E 009°29'510.6
2018-Feb-16 03:00N 63°54' E 009°24'510.9
2018-Feb-16 02:30N 63°49' E 009°20'510.8
2018-Feb-16 02:00N 63°43' E 009°17'611.0
2018-Feb-16 01:30N 63°38' E 009°16'510.3
2018-Feb-16 01:00N 63°33' E 009°16'510.3
2018-Feb-16 00:29N 63°30' E 009°05'510.4
2018-Feb-16 00:00N 63°28' E 008°55'510.4
2018-Feb-15 23:29N 63°26' E 008°44'510.4
2018-Feb-15 23:00N 63°24' E 008°34'510.2
2018-Feb-15 22:30N 63°22' E 008°24'611.2
2018-Feb-15 22:00N 63°18' E 008°14'611.1
2018-Feb-15 21:30N 63°15' E 008°04'611.1
2018-Feb-15 21:00N 63°12' E 007°53'5 9.6
2018-Feb-15 20:30N 63°08' E 007°48'1 2.6
2018-Feb-15 20:00N 63°07' E 007°46'1 2.8
2018-Feb-15 19:31N 63°08' E 007°48'510.2
2018-Feb-15 19:00N 63°07' E 007°36'510.6
2018-Feb-15 18:30N 63°05' E 007°26'510.2
2018-Feb-15 18:00N 63°03' E 007°16'5 9.9
2018-Feb-15 17:30N 63°01' E 007°06'5 9.6
2018-Feb-15 17:00N 62°59' E 006°56'510.0
2018-Feb-15 16:29N 62°56' E 006°48'510.6
2018-Feb-15 16:00N 62°51' E 006°41'510.6
2018-Feb-15 15:30N 62°47' E 006°35'510.3
2018-Feb-15 15:00N 62°43' E 006°29'510.3
2018-Feb-15 14:30N 62°38' E 006°23'5 9.6
2018-Feb-15 14:00N 62°35' E 006°15'5 9.6
2018-Feb-15 13:30N 62°31' E 006°09'5 9.2
2018-Feb-15 13:00N 62°28' E 006°03'5 9.9
2018-Feb-15 12:29N 62°25' E 005°53'5 9.8
2018-Feb-15 12:00N 62°22' E 005°47'4 8.2
2018-Feb-15 11:30N 62°19' E 005°40'5 9.5
2018-Feb-15 10:59N 62°16' E 005°31'4 9.0
2018-Feb-15 10:30N 62°12' E 005°28'1 2.9
2018-Feb-15 10:00N 62°12' E 005°25'0 0.0
2018-Feb-15 09:30N 62°12' E 005°25'0 0.0
2018-Feb-15 09:00N 62°12' E 005°25'0 0.0
2018-Feb-15 08:30N 62°12' E 005°25'0 0.0
2018-Feb-15 08:00N 62°12' E 005°25'0 0.0
2018-Feb-15 07:30N 62°12' E 005°25'0 0.0
2018-Feb-15 07:00N 62°12' E 005°25'0 0.0
2018-Feb-15 06:27N 62°12' E 005°25'0 0.0
2018-Feb-15 06:00N 62°12' E 005°25'0 0.0
2018-Feb-15 05:30N 62°12' E 005°25'0 0.0
2018-Feb-15 05:00N 62°12' E 005°25'0 0.0
2018-Feb-15 04:30N 62°12' E 005°25'0 0.0
2018-Feb-15 04:00N 62°12' E 005°25'0 0.0
2018-Feb-15 03:30N 62°12' E 005°25'0 0.0
2018-Feb-15 03:00N 62°12' E 005°25'0 0.0
2018-Feb-15 02:30N 62°12' E 005°25'0 0.0
2018-Feb-15 02:00N 62°12' E 005°25'0 0.0
2018-Feb-15 01:30N 62°12' E 005°25'0 0.0
2018-Feb-15 01:00N 62°12' E 005°25'0 0.0
2018-Feb-15 00:30N 62°12' E 005°25'0 0.0
2018-Feb-15 00:00N 62°12' E 005°25'0 0.0
2018-Feb-14 23:30N 62°12' E 005°25'0 0.0
2018-Feb-14 23:00N 62°12' E 005°25'0 0.0
2018-Feb-14 22:30N 62°12' E 005°25'0 0.0
2018-Feb-14 22:00N 62°12' E 005°25'0 0.0
2018-Feb-14 21:30N 62°12' E 005°25'0 0.0
2018-Feb-14 21:00N 62°12' E 005°25'0 0.0
2018-Feb-14 20:30N 62°12' E 005°25'0 0.0
2018-Feb-14 20:00N 62°12' E 005°25'0 0.0
2018-Feb-14 19:30N 62°12' E 005°25'0 0.0
2018-Feb-14 19:00N 62°12' E 005°25'0 0.0
2018-Feb-14 18:30N 62°12' E 005°25'0 0.0
2018-Feb-14 18:00N 62°12' E 005°25'0 0.0
2018-Feb-14 17:30N 62°12' E 005°25'0 0.0
2018-Feb-14 17:00N 62°12' E 005°25'0 0.0
2018-Feb-14 16:30N 62°12' E 005°25'0 0.0
2018-Feb-14 16:00N 62°12' E 005°25'0 0.0
2018-Feb-14 15:30N 62°12' E 005°25'0 0.0
2018-Feb-14 14:59N 62°12' E 005°25'0 0.0
2018-Feb-14 14:30N 62°12' E 005°25'4 7.6
2018-Feb-14 13:59N 62°11' E 005°34'510.1
2018-Feb-14 13:30N 62°12' E 005°44'4 8.3
2018-Feb-14 13:00N 62°15' E 005°51'3 5.0
2018-Feb-14 12:29N 62°17' E 005°52'0 0.3
2018-Feb-14 12:00N 62°17' E 005°52'3 6.0
2018-Feb-14 11:30N 62°14' E 005°51'5 9.7
2018-Feb-14 11:00N 62°11' E 005°42'5 9.1
2018-Feb-14 10:29N 62°12' E 005°32'4 8.8
2018-Feb-14 10:00N 62°11' E 005°23'5 9.3
2018-Feb-14 09:29N 62°13' E 005°14'5 9.1
2018-Feb-14 09:00N 62°12' E 005°05'5 9.8
2018-Feb-14 08:29N 62°07' E 005°05'510.0
2018-Feb-14 08:00N 62°02' E 005°09'510.1
2018-Feb-14 07:30N 61°57' E 005°09'4 7.2
2018-Feb-14 06:59N 61°54' E 005°12'510.2
2018-Feb-14 06:30N 61°55' E 005°22'510.2
2018-Feb-14 06:00N 61°55' E 005°33'510.7
2018-Feb-14 05:30N 61°53' E 005°44'5 9.1
2018-Feb-14 05:00N 61°52' E 005°53'510.1
2018-Feb-14 04:30N 61°50' E 006°04'5 9.5
2018-Feb-14 04:00N 61°47' E 006°11'0 0.9
2018-Feb-14 03:30N 61°47' E 006°12'0 0.0
2018-Feb-14 03:00N 61°47' E 006°12'0 0.0
2018-Feb-14 02:30N 61°47' E 006°12'0 0.0
2018-Feb-14 02:00N 61°47' E 006°12'0 0.0
2018-Feb-14 01:29N 61°47' E 006°12'1 2.4
2018-Feb-14 01:00N 61°47' E 006°09'5 9.5
2018-Feb-14 00:30N 61°51' E 006°03'5 9.1
2018-Feb-14 00:00N 61°52' E 005°53'4 8.4
2018-Feb-13 23:30N 61°53' E 005°44'5 8.9
2018-Feb-13 22:59N 61°55' E 005°35'4 9.1
2018-Feb-13 22:30N 61°55' E 005°26'5 9.8
2018-Feb-13 21:59N 61°54' E 005°16'2 4.1
2018-Feb-13 21:30N 61°52' E 005°14'3 6.7
2018-Feb-13 21:00N 61°49' E 005°11'510.2
2018-Feb-13 20:30N 61°46' E 005°02'5 9.7
2018-Feb-13 20:00N 61°42' E 004°58'510.2
2018-Feb-13 19:29N 61°36' E 004°58'5 9.6
2018-Feb-13 18:59N 61°32' E 005°00'510.7
2018-Feb-13 18:30N 61°27' E 004°58'510.5
2018-Feb-13 18:00N 61°22' E 005°02'4 8.1
2018-Feb-13 17:30N 61°18' E 004°59'4 8.3
2018-Feb-13 17:00N 61°14' E 004°56'510.3
2018-Feb-13 16:30N 61°09' E 005°01'510.2
2018-Feb-13 16:00N 61°04' E 004°59'510.6
2018-Feb-13 15:29N 61°01' E 004°50'510.0
2018-Feb-13 14:59N 60°56' E 004°46'510.6
2018-Feb-13 14:30N 60°51' E 004°46'5 9.9
2018-Feb-13 14:00N 60°46' E 004°47'510.7
2018-Feb-13 13:30N 60°41' E 004°52'510.8
2018-Feb-13 13:00N 60°37' E 004°56'4 7.4
2018-Feb-13 12:30N 60°33' E 004°59'0 0.0
2018-Feb-13 12:00N 60°33' E 004°59'4 8.5
2018-Feb-13 11:30N 60°31' E 005°07'510.2
2018-Feb-13 11:00N 60°28' E 005°15'510.3
2018-Feb-13 10:30N 60°23' E 005°18'1 1.1
2018-Feb-13 10:00N 60°23' E 005°19'0 0.0
2018-Feb-13 09:30N 60°23' E 005°19'0 0.0
2018-Feb-13 09:00N 60°23' E 005°19'0 0.0
2018-Feb-13 08:30N 60°23' E 005°19'1 1.9
2018-Feb-13 08:00N 60°24' E 005°18'2 4.9
2018-Feb-13 07:30N 60°24' E 005°13'5 9.2
2018-Feb-13 07:00N 60°19' E 005°12'510.5
2018-Feb-13 06:30N 60°14' E 005°10'510.8
2018-Feb-13 06:00N 60°09' E 005°16'510.3
2018-Feb-13 05:30N 60°05' E 005°19'510.5
2018-Feb-13 04:59N 59°59' E 005°21'510.6
2018-Feb-13 04:30N 59°56' E 005°29'510.5
2018-Feb-13 04:00N 59°51' E 005°33'510.3
2018-Feb-13 03:30N 59°46' E 005°32'511.2
2018-Feb-13 03:00N 59°42' E 005°25'510.7
2018-Feb-13 02:30N 59°37' E 005°18'510.6
2018-Feb-13 02:00N 59°33' E 005°14'510.1
2018-Feb-13 01:30N 59°28' E 005°13'510.1
2018-Feb-13 01:00N 59°23' E 005°18'510.4
2018-Feb-13 00:30N 59°18' E 005°20'4 8.0
2018-Feb-12 23:59N 59°15' E 005°25'5 9.8
2018-Feb-12 23:30N 59°11' E 005°32'510.1
2018-Feb-12 22:59N 59°09' E 005°41'510.3
2018-Feb-12 22:30N 59°07' E 005°50'4 7.7
2018-Feb-12 22:00N 59°07' E 005°58'1 2.6
2018-Feb-12 21:29N 59°07' E 006°00'0 0.0
2018-Feb-12 21:00N 59°07' E 006°00'0 0.0
2018-Feb-12 20:24N 59°07' E 006°00'0 0.0
2018-Feb-12 19:59N 59°07' E 006°00'0 0.0
2018-Feb-12 19:30N 59°07' E 006°00'0 0.0
2018-Feb-12 19:00N 59°07' E 006°00'0 0.0
2018-Feb-12 18:27N 59°07' E 006°00'0 0.0
2018-Feb-12 18:00N 59°07' E 006°00'0 0.0
2018-Feb-12 17:30N 59°07' E 006°00'0 0.0
2018-Feb-12 16:59N 59°07' E 006°00'0 0.0
2018-Feb-12 16:30N 59°07' E 006°00'0 0.0
2018-Feb-12 16:00N 59°07' E 006°00'0 0.0
2018-Feb-12 15:29N 59°07' E 006°00'0 0.0
2018-Feb-12 15:00N 59°07' E 006°00'0 0.0
2018-Feb-12 14:29N 59°07' E 006°00'0 0.0
2018-Feb-12 14:00N 59°07' E 006°00'0 0.0
2018-Feb-12 13:30N 59°07' E 006°00'0 0.0
2018-Feb-12 12:59N 59°07' E 005°60'0 0.0
2018-Feb-12 12:29N 59°07' E 006°00'0 0.0
2018-Feb-12 11:59N 59°07' E 006°00'0 0.0
2018-Feb-12 11:29N 59°07' E 006°00'0 0.0
2018-Feb-12 11:00N 59°07' E 006°00'0 0.0
2018-Feb-12 10:29N 59°07' E 006°00'0 0.0
2018-Feb-12 09:57N 59°07' E 006°00'0 0.0
2018-Feb-12 09:29N 59°07' E 006°00'0 0.0
2018-Feb-12 09:00N 59°07' E 006°00'3 6.7
2018-Feb-12 08:30N 59°06' E 005°54'3 6.2
2018-Feb-12 08:00N 59°09' E 005°51'0 0.0
2018-Feb-12 07:30N 59°09' E 005°51'3 5.9
2018-Feb-12 07:00N 59°06' E 005°52'5 9.9
2018-Feb-12 06:30N 59°02' E 005°46'510.4
2018-Feb-12 06:00N 59°02' E 005°36'5 9.2
2018-Feb-12 05:30N 58°58' E 005°33'510.5
2018-Feb-12 05:00N 58°53' E 005°32'5 9.9
2018-Feb-12 04:30N 58°48' E 005°28'4 9.1
2018-Feb-12 04:00N 58°44' E 005°27'510.0
2018-Feb-12 03:30N 58°39' E 005°31'5 9.7
2018-Feb-12 03:00N 58°35' E 005°36'5 9.9
2018-Feb-12 02:30N 58°31' E 005°41'5 9.8
2018-Feb-12 01:59N 58°27' E 005°47'5 9.5
2018-Feb-12 01:30N 58°24' E 005°54'3 6.4
2018-Feb-12 01:00N 58°26' E 005°59'1 2.3
2018-Feb-12 00:30N 58°27' E 005°60'0 0.0
2018-Feb-12 00:00N 58°27' E 005°60'0 0.0
2018-Feb-11 23:31N 58°27' E 005°60'2 4.8
2018-Feb-11 23:00N 58°25' E 005°60'4 7.6
2018-Feb-11 22:30N 58°25' E 005°52'510.2
2018-Feb-11 22:00N 58°29' E 005°46'2 3.3
2018-Feb-11 21:30N 58°30' E 005°47'0 0.0
2018-Feb-11 20:56N 58°30' E 005°47'0 0.0
2018-Feb-11 20:30N 58°30' E 005°47'0 0.0
2018-Feb-11 20:00N 58°30' E 005°47'1 2.8
2018-Feb-11 19:30N 58°31' E 005°45'4 8.6
2018-Feb-11 19:00N 58°33' E 005°38'5 9.7
2018-Feb-11 18:30N 58°37' E 005°33'4 8.8
2018-Feb-11 18:00N 58°41' E 005°29'4 8.4
2018-Feb-11 17:30N 58°45' E 005°26'4 8.7
2018-Feb-11 17:00N 58°49' E 005°28'510.0
2018-Feb-11 16:30N 58°54' E 005°32'5 9.9
2018-Feb-11 16:00N 58°58' E 005°33'4 8.3
2018-Feb-11 15:30N 59°02' E 005°36'5 9.8
2018-Feb-11 15:00N 59°02' E 005°46'  

Dump ship's entire track history